Time;durP1;ratioP1;P1;durP2;ratioP2;P2;SDS_P1;SDS_P2;PMS_P1;PMS_P2;Temp;Humidity;BMP_temperature;BMP_pressure;BME280_temperature;BME280_humidity;BME280_pressure;Samples;Min_cycle;Max_cycle;Signal;HPM_P1;HPM_P2
2021/12/05 00:16:50;;;;;;;;;;;6.00;99.90;;;;;;5096258;28;20425;-78
2021/12/05 00:22:37;;;;;;;;;;;6.00;99.90;;;;;;5095646;28;19908;-78
2021/12/05 00:25:06;;;;;;;;;;;5.90;99.90;;;;;;5095798;28;19908;-79
2021/12/05 00:27:38;;;;;;;;;;;5.90;99.90;;;;;;5095700;28;20430;-78
2021/12/05 00:30:25;;;;;;;;;;;5.90;99.90;;;;;;5095586;28;19919;-79
2021/12/05 00:33:11;;;;;;;;;;;5.90;99.90;;;;;;5077278;28;20368;-78
2021/12/05 00:59:45;;;;;;;;;;;6.20;99.90;;;;;;5094842;28;20426;-79
2021/12/05 01:02:29;;;;;;;;;;;6.10;99.90;;;;;;5091710;28;19908;-79
2021/12/05 01:10:34;;;;;;;;;;;5.60;99.90;;;;;;5094835;28;19916;-79
2021/12/05 01:15:31;;;;;;;;;;;5.80;99.90;;;;;;5094853;28;19919;-78
2021/12/05 01:18:16;;;;;;;;;;;5.90;99.90;;;;;;5094709;28;19908;-78
2021/12/05 01:20:45;;;;;;;;;;;5.90;99.90;;;;;;5094584;28;19961;-78
2021/12/05 01:23:27;;;;;;;;;;;5.70;99.90;;;;;;5094551;28;19912;-79
2021/12/05 01:36:11;;;;;;;;;;;5.30;99.90;;;;;;5094726;28;19912;-78
2021/12/05 02:29:38;;;;;;;;;;;5.80;99.90;;;;;;5093706;28;19915;-78
2021/12/05 02:32:33;;;;;;;;;;;5.90;99.90;;;;;;5093833;28;19912;-78
2021/12/05 02:35:18;;;;;;;;;;;6.00;99.90;;;;;;5093665;28;20372;-79
2021/12/05 02:43:20;;;;;;;;;;;6.00;99.90;;;;;;5093357;28;20483;-78
2021/12/05 02:45:47;;;;;;;;;;;6.20;99.90;;;;;;5093684;28;19912;-79
2021/12/05 02:48:13;;;;;;;;;;;6.10;99.90;;;;;;5093729;28;19915;-78
2021/12/05 02:50:39;;;;;;;;;;;6.10;99.90;;;;;;5093605;28;19908;-78
2021/12/05 02:53:16;;;;;;;;;;;6.10;99.90;;;;;;5093447;28;19957;-78
2021/12/05 02:55:42;;;;;;;;;;;6.20;99.90;;;;;;5093777;28;20325;-78
2021/12/05 03:03:28;;;;;;;;;;;6.30;99.90;;;;;;5093123;28;19908;-79
2021/12/05 03:05:59;;;;;;;;;;;6.30;99.90;;;;;;5075101;28;19938;-79
2021/12/05 03:08:24;;;;;;;;;;;6.20;99.90;;;;;;5093490;28;19961;-79
2021/12/05 03:10:51;;;;;;;;;;;6.10;99.90;;;;;;5096828;28;19916;-78
2021/12/05 03:13:17;;;;;;;;;;;6.10;99.90;;;;;;5097015;28;19961;-79
2021/12/05 03:15:43;;;;;;;;;;;6.10;99.90;;;;;;5096970;28;20307;-78
2021/12/05 03:18:08;;;;;;;;;;;6.00;99.90;;;;;;5097061;28;19908;-78
2021/12/05 03:20:34;;;;;;;;;;;6.10;99.90;;;;;;5096881;28;19943;-78
2021/12/05 03:22:59;;;;;;;;;;;5.90;99.90;;;;;;5096883;28;19908;-79
2021/12/05 03:25:25;;;;;;;;;;;5.90;99.90;;;;;;5078475;28;19912;-78
2021/12/05 03:27:52;;;;;;;;;;;5.90;99.90;;;;;;5096935;28;19916;-79
2021/12/05 03:30:21;;;;;;;;;;;6.00;99.90;;;;;;5096924;28;20368;-79
2021/12/05 03:32:48;;;;;;;;;;;6.00;99.90;;;;;;5096582;28;19914;-79
2021/12/05 03:35:14;;;;;;;;;;;5.90;99.90;;;;;;5078373;28;20030;-78
2021/12/05 03:37:40;;;;;;;;;;;5.90;99.90;;;;;;5096701;28;19947;-78
2021/12/05 03:40:07;;;;;;;;;;;5.80;99.90;;;;;;5096581;28;19908;-79
2021/12/05 03:42:33;;;;;;;;;;;5.90;99.90;;;;;;5095931;28;19954;-78
2021/12/05 03:44:59;;;;;;;;;;;5.90;99.90;;;;;;5096338;28;19908;-78
2021/12/05 03:47:28;;;;;;;;;;;5.90;99.90;;;;;;5096471;28;19913;-79
2021/12/05 03:49:54;;;;;;;;;;;5.80;99.90;;;;;;5096316;28;19999;-78
2021/12/05 03:52:20;;;;;;;;;;;5.80;99.90;;;;;;5096219;28;20365;-78
2021/12/05 03:54:45;;;;;;;;;;;5.80;99.90;;;;;;5077933;28;19935;-78
2021/12/05 03:57:12;;;;;;;;;;;5.60;99.90;;;;;;5096181;28;19957;-79
2021/12/05 03:59:37;;;;;;;;;;;5.60;99.90;;;;;;5077944;28;19931;-79
2021/12/05 04:02:04;;;;;;;;;;;5.50;99.90;;;;;;5096066;28;20352;-78
2021/12/05 04:04:30;;;;;;;;;;;5.50;99.90;;;;;;5096196;28;19997;-78
2021/12/05 04:06:56;;;;;;;;;;;5.40;99.90;;;;;;5095954;28;19999;-78
2021/12/05 04:09:21;;;;;;;;;;;5.30;99.90;;;;;;5096079;28;19989;-79
2021/12/05 04:11:56;;;;;;;;;;;5.30;99.90;;;;;;5095783;28;19920;-79
2021/12/05 04:14:23;;;;;;;;;;;5.30;99.90;;;;;;5077397;28;20276;-79
2021/12/05 04:16:49;;;;;;;;;;;5.30;99.90;;;;;;5096304;28;19953;-79
2021/12/05 04:19:14;;;;;;;;;;;5.30;99.90;;;;;;5077576;28;19912;-78
2021/12/05 04:21:41;;;;;;;;;;;5.30;99.90;;;;;;5095567;28;19948;-79
2021/12/05 04:24:08;;;;;;;;;;;5.10;99.90;;;;;;5077403;28;19908;-79
2021/12/05 04:26:34;;;;;;;;;;;5.10;99.90;;;;;;5095561;28;19943;-79
2021/12/05 04:29:00;;;;;;;;;;;5.10;99.90;;;;;;5095518;28;19908;-78
2021/12/05 04:31:26;;;;;;;;;;;5.20;99.90;;;;;;5095503;28;19915;-78
2021/12/05 04:33:52;;;;;;;;;;;5.10;99.90;;;;;;5095531;28;19909;-79
2021/12/05 04:36:18;;;;;;;;;;;5.10;99.90;;;;;;5095417;28;19912;-78
2021/12/05 04:38:44;;;;;;;;;;;5.20;99.90;;;;;;5095353;28;19916;-79
2021/12/05 04:41:10;;;;;;;;;;;5.10;99.90;;;;;;5095206;28;19973;-78
2021/12/05 04:43:38;;;;;;;;;;;5.10;99.90;;;;;;5095524;28;20388;-79
2021/12/05 04:46:05;;;;;;;;;;;4.90;99.90;;;;;;5076945;28;20361;-79
2021/12/05 04:48:31;;;;;;;;;;;4.90;99.90;;;;;;5095240;28;19908;-78
2021/12/05 04:50:56;;;;;;;;;;;4.90;99.90;;;;;;5095133;28;20261;-79
2021/12/05 04:53:26;;;;;;;;;;;4.90;99.90;;;;;;5095144;28;20368;-78
2021/12/05 04:55:52;;;;;;;;;;;4.90;99.90;;;;;;5095193;28;20292;-78
2021/12/05 04:58:17;;;;;;;;;;;4.80;99.90;;;;;;5095008;28;19915;-78
2021/12/05 05:00:43;;;;;;;;;;;4.90;99.90;;;;;;5094913;28;19908;-79
2021/12/05 05:03:10;;;;;;;;;;;4.90;99.90;;;;;;5095015;28;19933;-79
2021/12/05 05:05:38;;;;;;;;;;;5.00;99.90;;;;;;5094862;28;19921;-79
2021/12/05 05:08:04;;;;;;;;;;;5.00;99.90;;;;;;5094818;28;19937;-79
2021/12/05 05:10:30;;;;;;;;;;;5.00;99.90;;;;;;5094304;28;19991;-78
2021/12/05 05:12:56;;;;;;;;;;;4.80;99.90;;;;;;5094884;28;19978;-79
2021/12/05 05:15:26;;;;;;;;;;;4.90;99.90;;;;;;5094586;28;19912;-79
2021/12/05 05:17:54;;;;;;;;;;;4.90;99.90;;;;;;5093836;28;20276;-78
2021/12/05 05:20:42;;;;;;;;;;;4.90;99.90;;;;;;5094540;28;19957;-79
2021/12/05 05:23:38;;;;;;;;;;;4.90;99.90;;;;;;5075981;28;20413;-78
2021/12/05 05:47:52;;;;;;;;;;;5.40;99.90;;;;;;5093954;28;20015;-79
2021/12/05 05:50:19;;;;;;;;;;;5.30;99.90;;;;;;5075724;28;20002;-78
2021/12/05 05:52:45;;;;;;;;;;;5.40;99.90;;;;;;5093988;28;19912;-79
2021/12/05 05:55:12;;;;;;;;;;;5.40;99.90;;;;;;5094168;28;20003;-79
2021/12/05 05:58:15;;;;;;;;;;;5.40;99.90;;;;;;5075853;28;19916;-79
2021/12/05 06:00:36;;;;;;;;;;;5.30;99.90;;;;;;5090735;28;20395;-79
2021/12/05 06:03:21;;;;;;;;;;;5.30;99.90;;;;;;5094187;28;19908;-78
2021/12/05 06:05:50;;;;;;;;;;;5.20;99.90;;;;;;5075482;28;19912;-78
2021/12/05 06:08:16;;;;;;;;;;;5.20;99.90;;;;;;5075666;28;20283;-79
2021/12/05 06:10:41;;;;;;;;;;;5.20;99.90;;;;;;5094002;28;19916;-79
2021/12/05 06:13:07;;;;;;;;;;;5.20;99.90;;;;;;5075701;28;19912;-79
2021/12/05 06:15:33;;;;;;;;;;;5.10;99.90;;;;;;5093845;28;19909;-78
2021/12/05 06:17:59;;;;;;;;;;;5.00;99.90;;;;;;5075668;28;19915;-79
2021/12/05 06:20:26;;;;;;;;;;;5.00;99.90;;;;;;5093719;28;19919;-79
2021/12/05 06:22:53;;;;;;;;;;;5.00;99.90;;;;;;5075552;28;19908;-78
2021/12/05 06:25:22;;;;;;;;;;;5.10;99.90;;;;;;5093661;28;20357;-79
2021/12/05 06:27:49;;;;;;;;;;;5.10;99.90;;;;;;5093745;28;19914;-78
2021/12/05 06:30:20;;;;;;;;;;;5.10;99.90;;;;;;5075462;28;19912;-78
2021/12/05 06:41:21;;;;;;;;;;;5.10;99.90;;;;;;5093453;28;19954;-78
2021/12/05 06:48:48;;;;;;;;;;;5.40;99.90;;;;;;5097244;28;19916;-78
2021/12/05 06:51:16;;;;;;;;;;;5.20;99.90;;;;;;5097418;28;20285;-78
2021/12/05 06:53:42;;;;;;;;;;;5.10;99.90;;;;;;5097427;28;19908;-79
2021/12/05 06:56:08;;;;;;;;;;;5.00;99.90;;;;;;5097298;28;20003;-78
2021/12/05 06:58:33;;;;;;;;;;;4.90;99.90;;;;;;5095958;28;20359;-79
2021/12/05 07:00:59;;;;;;;;;;;4.80;99.90;;;;;;5097235;28;19908;-78
2021/12/05 07:03:25;;;;;;;;;;;4.80;99.90;;;;;;5097179;28;19947;-78
2021/12/05 07:05:59;;;;;;;;;;;4.80;99.90;;;;;;5097073;28;19912;-79
2021/12/05 07:08:28;;;;;;;;;;;4.90;99.90;;;;;;5078616;28;20003;-79
2021/12/05 07:11:02;;;;;;;;;;;4.80;99.90;;;;;;5078610;28;19924;-79
2021/12/05 07:16:09;;;;;;;;;;;4.70;99.90;;;;;;5097323;28;20436;-79
2021/12/05 07:18:48;;;;;;;;;;;4.80;99.90;;;;;;5097106;28;19943;-79
2021/12/05 07:23:58;;;;;;;;;;;4.90;99.90;;;;;;5096496;28;19908;-78
2021/12/05 07:26:34;;;;;;;;;;;5.00;99.90;;;;;;5078237;28;19911;-79
2021/12/05 07:42:45;;;;;;;;;;;4.90;99.90;;;;;;5096174;28;20067;-78
2021/12/05 07:45:14;;;;;;;;;;;4.90;99.90;;;;;;5096614;28;19978;-79
2021/12/05 07:47:44;;;;;;;;;;;4.90;99.90;;;;;;5096382;28;20318;-79
2021/12/05 07:50:11;;;;;;;;;;;4.90;99.90;;;;;;5096304;28;19908;-78
2021/12/05 07:52:46;;;;;;;;;;;4.90;99.90;;;;;;5078112;28;19915;-79
2021/12/05 07:55:22;;;;;;;;;;;4.90;99.90;;;;;;5096025;28;20364;-79
2021/12/05 07:58:14;;;;;;;;;;;4.90;99.90;;;;;;5077733;28;19908;-79
2021/12/05 08:16:51;;;;;;;;;;;5.70;99.90;;;;;;5095878;28;20379;-79
2021/12/05 08:19:18;;;;;;;;;;;5.80;99.90;;;;;;5096103;28;19915;-79
2021/12/05 08:21:45;;;;;;;;;;;5.80;99.90;;;;;;5077576;28;20016;-79
2021/12/05 08:24:10;;;;;;;;;;;6.00;99.90;;;;;;5077433;28;19908;-79
2021/12/05 08:26:36;;;;;;;;;;;6.30;99.90;;;;;;5077387;28;19912;-78
2021/12/05 08:29:14;;;;;;;;;;;6.70;99.90;;;;;;5095586;28;19961;-79
2021/12/05 09:21:02;;;;;;;;;;;12.80;96.60;;;;;;5094779;28;19915;-79
2021/12/05 09:29:08;;;;;;;;;;;13.50;95.60;;;;;;5094167;28;19914;-80
2021/12/05 10:01:53;;;;;;;;;;;15.70;85.80;;;;;;5093734;28;19915;-80
2021/12/05 10:06:54;;;;;;;;;;;17.20;78.60;;;;;;5093766;28;20337;-80
2021/12/05 10:14:55;;;;;;;;;;;17.10;76.10;;;;;;5093523;28;20353;-79
2021/12/05 10:20:28;;;;;;;;;;;15.00;80.40;;;;;;5100543;28;20421;-79
2021/12/05 10:38:35;;;;;;;;;;;16.40;76.10;;;;;;5100612;28;19908;-80
2021/12/05 10:41:22;;;;;;;;;;;15.70;79.00;;;;;;5082001;28;19974;-80
2021/12/05 10:43:52;;;;;;;;;;;16.90;76.70;;;;;;5100452;28;19908;-80
2021/12/05 10:46:19;;;;;;;;;;;16.90;73.40;;;;;;5098882;28;19912;-80
2021/12/05 10:48:47;;;;;;;;;;;16.80;72.80;;;;;;5081903;28;20319;-79
2021/12/05 10:51:15;;;;;;;;;;;15.40;76.50;;;;;;5100207;28;19962;-80
2021/12/05 10:53:53;;;;;;;;;;;15.50;78.10;;;;;;5082011;28;19908;-80
2021/12/05 10:56:18;;;;;;;;;;;15.00;77.20;;;;;;5081958;28;19995;-79
2021/12/05 10:58:50;;;;;;;;;;;14.30;78.80;;;;;;5100175;28;20407;-80
2021/12/05 11:01:36;;;;;;;;;;;13.70;81.40;;;;;;5081903;28;19912;-79
2021/12/05 11:04:11;;;;;;;;;;;13.20;81.90;;;;;;5082260;28;19908;-79
2021/12/05 11:06:41;;;;;;;;;;;14.50;78.00;;;;;;5099976;28;19912;-79
2021/12/05 11:09:25;;;;;;;;;;;16.80;73.60;;;;;;5081789;28;19912;-80
2021/12/05 11:11:53;;;;;;;;;;;15.10;74.80;;;;;;5099777;28;20373;-80
2021/12/05 11:14:21;;;;;;;;;;;13.70;78.80;;;;;;5100083;28;20288;-78
2021/12/05 11:16:49;;;;;;;;;;;12.70;81.30;;;;;;5100090;28;19916;-80
2021/12/05 11:19:21;;;;;;;;;;;12.30;84.00;;;;;;5100057;28;19919;-79
2021/12/05 11:21:54;;;;;;;;;;;12.20;86.50;;;;;;5100047;28;19951;-79
2021/12/05 11:24:21;;;;;;;;;;;12.50;86.50;;;;;;5100344;28;19908;-79
2021/12/05 11:27:06;;;;;;;;;;;12.30;88.10;;;;;;5100013;28;19912;-79
2021/12/05 11:29:43;;;;;;;;;;;12.00;88.20;;;;;;5098206;28;19915;-79
2021/12/05 11:32:11;;;;;;;;;;;12.00;88.90;;;;;;5097174;28;19915;-79
2021/12/05 11:34:36;;;;;;;;;;;12.70;88.10;;;;;;5096624;28;20288;-79
2021/12/05 11:37:02;;;;;;;;;;;13.00;85.40;;;;;;5096742;28;19908;-80
2021/12/05 11:39:28;;;;;;;;;;;12.60;86.80;;;;;;5078238;28;19908;-79
2021/12/05 11:41:55;;;;;;;;;;;12.30;87.80;;;;;;5096478;28;19931;-79
2021/12/05 11:44:22;;;;;;;;;;;12.50;88.40;;;;;;5096697;28;20436;-79
2021/12/05 11:46:48;;;;;;;;;;;15.50;82.60;;;;;;5096265;28;19966;-79
2021/12/05 11:49:20;;;;;;;;;;;15.50;78.10;;;;;;5078166;28;19947;-80
2021/12/05 11:51:56;;;;;;;;;;;16.10;78.60;;;;;;5096480;28;19912;-80
2021/12/05 11:54:24;;;;;;;;;;;15.60;79.10;;;;;;5096254;28;19953;-80
2021/12/05 11:56:49;;;;;;;;;;;14.90;81.50;;;;;;5096227;28;19912;-79
2021/12/05 11:59:33;;;;;;;;;;;14.00;84.30;;;;;;5096311;28;19961;-80
2021/12/05 12:02:17;;;;;;;;;;;13.50;83.80;;;;;;5096089;28;19908;-79
2021/12/05 12:04:45;;;;;;;;;;;14.40;83.20;;;;;;5096036;28;19936;-79
2021/12/05 12:07:23;;;;;;;;;;;17.10;77.20;;;;;;5096508;28;20408;-80
2021/12/05 12:09:49;;;;;;;;;;;19.00;70.90;;;;;;5077785;28;19962;-79
2021/12/05 12:12:15;;;;;;;;;;;20.60;65.80;;;;;;5095577;28;19971;-80
2021/12/05 12:14:42;;;;;;;;;;;21.50;62.40;;;;;;5095833;28;19985;-80
2021/12/05 12:17:15;;;;;;;;;;;20.30;61.40;;;;;;5095997;28;19915;-79
2021/12/05 12:19:41;;;;;;;;;;;16.30;71.90;;;;;;5077393;28;19965;-79
2021/12/05 12:22:08;;;;;;;;;;;14.00;82.30;;;;;;5077581;28;20360;-80
2021/12/05 12:24:34;;;;;;;;;;;13.00;88.60;;;;;;5095637;28;19912;-78
2021/12/05 12:27:00;;;;;;;;;;;12.30;90.60;;;;;;5095558;28;19965;-79
2021/12/05 12:29:27;;;;;;;;;;;12.10;91.30;;;;;;5077330;28;19912;-80
2021/12/05 12:31:59;;;;;;;;;;;12.10;91.40;;;;;;5095837;28;19916;-79
2021/12/05 12:34:26;;;;;;;;;;;12.00;91.80;;;;;;5076987;28;19908;-79
2021/12/05 12:36:53;;;;;;;;;;;12.30;91.50;;;;;;5095332;28;20423;-79
2021/12/05 12:39:20;;;;;;;;;;;13.90;89.10;;;;;;5077103;28;19908;-79
2021/12/05 12:42:04;;;;;;;;;;;16.40;80.30;;;;;;5094196;28;19919;-80
2021/12/05 12:44:29;;;;;;;;;;;18.10;75.10;;;;;;5095300;28;19951;-80
2021/12/05 12:46:56;;;;;;;;;;;18.90;70.60;;;;;;5095317;28;19955;-80
2021/12/05 12:49:25;;;;;;;;;;;19.20;68.80;;;;;;5095155;28;19930;-79
2021/12/05 12:51:57;;;;;;;;;;;19.30;67.10;;;;;;5095137;28;19974;-79
2021/12/05 12:54:31;;;;;;;;;;;20.10;65.60;;;;;;5095003;28;19908;-80
2021/12/05 12:57:07;;;;;;;;;;;21.20;63.60;;;;;;5076802;28;19915;-80
2021/12/05 12:59:35;;;;;;;;;;;20.90;61.20;;;;;;5094907;28;20444;-79
2021/12/05 13:05:19;;;;;;;;;;;20.30;62.10;;;;;;5095123;28;20348;-80
2021/12/05 13:10:29;;;;;;;;;;;18.40;65.90;;;;;;5094401;28;19922;-80
2021/12/05 13:12:58;;;;;;;;;;;19.10;64.70;;;;;;5095142;28;20362;-80
2021/12/05 13:15:23;;;;;;;;;;;19.20;64.50;;;;;;5076520;28;19915;-80
2021/12/05 13:17:51;;;;;;;;;;;19.60;64.50;;;;;;5094636;28;19908;-80
2021/12/05 13:20:18;;;;;;;;;;;20.00;64.00;;;;;;5094627;28;19915;-80
2021/12/05 13:23:19;;;;;;;;;;;20.30;62.90;;;;;;5094542;28;19931;-80
2021/12/05 13:26:03;;;;;;;;;;;20.20;62.90;;;;;;4976727;28;20007;-79
2021/12/05 13:28:37;;;;;;;;;;;18.70;64.90;;;;;;5085394;28;19931;-80
2021/12/05 13:31:22;;;;;;;;;;;18.30;65.60;;;;;;5076209;28;20360;-80
2021/12/05 13:33:48;;;;;;;;;;;18.70;65.30;;;;;;5076136;28;20441;-80
2021/12/05 13:36:33;;;;;;;;;;;18.20;65.50;;;;;;5094311;28;19908;-80
2021/12/05 13:38:58;;;;;;;;;;;16.80;68.10;;;;;;5094284;28;19908;-79
2021/12/05 13:41:24;;;;;;;;;;;15.80;71.20;;;;;;5094240;28;20330;-79
2021/12/05 13:43:54;;;;;;;;;;;15.90;73.60;;;;;;5075975;28;19915;-80
2021/12/05 13:46:31;;;;;;;;;;;16.90;72.40;;;;;;5094091;28;19911;-80
2021/12/05 13:48:59;;;;;;;;;;;18.20;69.70;;;;;;5094081;28;19908;-79
2021/12/05 13:51:26;;;;;;;;;;;18.80;66.70;;;;;;5094214;28;20391;-80
2021/12/05 13:53:52;;;;;;;;;;;19.30;65.40;;;;;;5093727;28;19908;-80
2021/12/05 13:56:23;;;;;;;;;;;19.40;65.10;;;;;;5094028;28;19999;-80
2021/12/05 13:58:49;;;;;;;;;;;19.80;64.20;;;;;;5094205;28;19976;-80
2021/12/05 14:01:18;;;;;;;;;;;20.00;63.50;;;;;;5075812;28;19912;-79
2021/12/05 14:03:53;;;;;;;;;;;20.10;63.20;;;;;;5093924;28;19991;-80
2021/12/05 14:06:29;;;;;;;;;;;19.80;63.00;;;;;;5093831;28;19916;-80
2021/12/05 14:08:58;;;;;;;;;;;19.70;62.60;;;;;;5094009;28;19912;-80
2021/12/05 14:11:24;;;;;;;;;;;19.50;63.10;;;;;;5093846;28;20376;-79
2021/12/05 14:13:50;;;;;;;;;;;17.90;65.40;;;;;;5093804;28;19908;-79
2021/12/05 14:16:17;;;;;;;;;;;16.40;69.00;;;;;;5093815;28;20357;-80
2021/12/05 14:18:43;;;;;;;;;;;15.40;72.70;;;;;;5093730;28;19914;-79
2021/12/05 14:21:15;;;;;;;;;;;14.70;75.20;;;;;;5093746;28;19908;-79
2021/12/05 14:23:48;;;;;;;;;;;14.00;79.10;;;;;;5093818;28;20315;-79
2021/12/05 14:26:18;;;;;;;;;;;13.60;83.60;;;;;;5075460;28;19912;-79
2021/12/05 14:28:53;;;;;;;;;;;12.90;85.60;;;;;;5075562;28;19933;-79
2021/12/05 14:31:23;;;;;;;;;;;12.60;87.40;;;;;;5093908;28;19908;-79
2021/12/05 14:33:52;;;;;;;;;;;12.20;89.70;;;;;;5093706;28;19908;-79
2021/12/05 14:36:19;;;;;;;;;;;12.30;91.20;;;;;;5093589;28;19915;-79
2021/12/05 14:38:45;;;;;;;;;;;12.00;91.00;;;;;;5093540;28;19912;-79
2021/12/05 14:41:10;;;;;;;;;;;11.70;91.10;;;;;;5093465;28;20041;-79
2021/12/05 14:43:36;;;;;;;;;;;11.70;91.70;;;;;;5075691;28;19908;-79
2021/12/05 14:46:01;;;;;;;;;;;11.70;91.90;;;;;;5093466;28;19912;-79
2021/12/05 14:48:29;;;;;;;;;;;11.80;91.60;;;;;;5094039;28;19912;-79
2021/12/05 14:50:57;;;;;;;;;;;11.70;91.70;;;;;;5093611;28;19913;-79
2021/12/05 14:53:24;;;;;;;;;;;11.90;91.40;;;;;;5093405;28;20029;-79
2021/12/05 14:55:56;;;;;;;;;;;11.90;91.70;;;;;;5093473;28;20366;-79
2021/12/05 14:58:22;;;;;;;;;;;12.30;91.50;;;;;;5093515;28;19930;-79
2021/12/05 15:00:50;;;;;;;;;;;12.00;91.70;;;;;;5093395;28;20291;-79
2021/12/05 15:03:18;;;;;;;;;;;11.70;92.30;;;;;;5093759;28;20290;-79
2021/12/05 15:05:46;;;;;;;;;;;11.40;93.20;;;;;;5095603;28;19916;-79
2021/12/05 15:08:13;;;;;;;;;;;11.20;94.30;;;;;;5097111;28;19909;-79
2021/12/05 15:10:39;;;;;;;;;;;11.30;94.40;;;;;;5096892;28;19915;-79
2021/12/05 15:13:05;;;;;;;;;;;11.30;94.60;;;;;;5097087;28;20008;-79
2021/12/05 15:15:30;;;;;;;;;;;11.20;95.10;;;;;;5096984;28;20438;-79
2021/12/05 15:17:56;;;;;;;;;;;11.10;94.90;;;;;;5097062;28;19908;-78
2021/12/05 15:20:24;;;;;;;;;;;10.90;95.30;;;;;;5096928;28;19923;-78
2021/12/05 15:22:51;;;;;;;;;;;10.80;95.60;;;;;;5078660;28;19908;-79
2021/12/05 15:25:18;;;;;;;;;;;10.70;95.70;;;;;;5096824;28;19908;-79
2021/12/05 15:27:45;;;;;;;;;;;10.80;95.30;;;;;;5096881;28;19969;-79
2021/12/05 15:30:19;;;;;;;;;;;10.80;95.30;;;;;;5096710;28;19908;-79
2021/12/05 15:32:45;;;;;;;;;;;11.10;94.80;;;;;;5096694;28;19958;-79
2021/12/05 15:35:13;;;;;;;;;;;11.60;93.50;;;;;;5078464;28;19908;-79
2021/12/05 15:37:59;;;;;;;;;;;11.90;92.60;;;;;;5096500;28;19908;-79
2021/12/05 15:40:26;;;;;;;;;;;12.10;91.60;;;;;;5095664;28;20011;-79
2021/12/05 15:42:57;;;;;;;;;;;11.70;92.10;;;;;;5078263;28;19909;-79
2021/12/05 15:45:23;;;;;;;;;;;11.50;92.30;;;;;;5096471;28;19909;-79
2021/12/05 15:47:49;;;;;;;;;;;11.20;92.50;;;;;;5096541;28;19944;-79
2021/12/05 15:50:19;;;;;;;;;;;10.90;92.80;;;;;;5096362;28;19912;-79
2021/12/05 15:52:48;;;;;;;;;;;11.00;93.00;;;;;;5096363;28;20010;-78
2021/12/05 15:55:20;;;;;;;;;;;10.80;92.30;;;;;;5078129;28;19909;-80
2021/12/05 15:57:48;;;;;;;;;;;10.70;92.60;;;;;;5078028;28;19926;-79
2021/12/05 16:00:16;;;;;;;;;;;10.60;92.40;;;;;;5096396;28;19916;-79
2021/12/05 16:02:47;;;;;;;;;;;10.60;92.10;;;;;;5096183;28;19950;-78
2021/12/05 16:05:17;;;;;;;;;;;10.50;92.50;;;;;;5096018;28;19908;-79
2021/12/05 16:07:43;;;;;;;;;;;10.40;91.80;;;;;;5096225;28;19912;-79
2021/12/05 16:10:13;;;;;;;;;;;10.30;92.00;;;;;;5096174;28;19923;-79
2021/12/05 16:12:40;;;;;;;;;;;10.20;92.20;;;;;;5095444;28;19963;-79
2021/12/05 16:15:06;;;;;;;;;;;10.20;92.20;;;;;;5095801;28;19915;-78
2021/12/05 16:17:33;;;;;;;;;;;10.10;92.50;;;;;;5095536;28;19915;-78
2021/12/05 16:20:08;;;;;;;;;;;10.20;92.60;;;;;;5095716;28;19934;-79
2021/12/05 16:22:53;;;;;;;;;;;10.20;92.80;;;;;;5077530;28;19908;-78
2021/12/05 16:25:19;;;;;;;;;;;10.10;92.80;;;;;;5095704;28;20384;-79
2021/12/05 16:27:49;;;;;;;;;;;10.00;93.10;;;;;;5095733;28;19923;-79
2021/12/05 16:30:22;;;;;;;;;;;9.80;93.30;;;;;;5095785;28;20362;-79
2021/12/05 16:32:47;;;;;;;;;;;9.80;93.60;;;;;;5095519;28;19908;-79
2021/12/05 16:35:26;;;;;;;;;;;9.80;93.50;;;;;;5095713;28;19917;-78
2021/12/05 16:37:52;;;;;;;;;;;9.80;93.50;;;;;;5095360;28;19914;-79
2021/12/05 16:40:17;;;;;;;;;;;9.70;93.80;;;;;;5095333;28;19908;-79
2021/12/05 16:42:44;;;;;;;;;;;9.70;93.70;;;;;;5077246;28;19931;-79
2021/12/05 16:45:11;;;;;;;;;;;9.80;93.70;;;;;;5095209;28;20053;-79
2021/12/05 16:47:37;;;;;;;;;;;9.70;93.80;;;;;;5077031;28;19944;-78
2021/12/05 16:50:03;;;;;;;;;;;9.70;94.10;;;;;;5077014;28;19914;-78
2021/12/05 16:52:33;;;;;;;;;;;9.60;94.10;;;;;;5095220;28;19908;-78
2021/12/05 16:55:10;;;;;;;;;;;9.60;94.00;;;;;;5095371;28;19908;-79
2021/12/05 16:57:44;;;;;;;;;;;9.60;94.30;;;;;;5095265;28;19938;-78
2021/12/05 17:00:12;;;;;;;;;;;9.60;94.10;;;;;;5076568;28;19908;-78
2021/12/05 17:02:41;;;;;;;;;;;9.70;94.00;;;;;;5095089;28;20278;-79
2021/12/05 17:05:15;;;;;;;;;;;9.70;94.00;;;;;;5093634;28;19962;-78
2021/12/05 17:07:50;;;;;;;;;;;9.60;93.90;;;;;;5076301;28;19942;-78
2021/12/05 17:10:19;;;;;;;;;;;9.70;93.70;;;;;;5094795;28;19908;-79
2021/12/05 17:12:44;;;;;;;;;;;9.70;93.90;;;;;;5094656;28;19924;-78
2021/12/05 17:15:10;;;;;;;;;;;9.70;93.50;;;;;;5094778;28;19931;-79
2021/12/05 17:17:36;;;;;;;;;;;9.80;93.60;;;;;;5094925;28;19951;-79
2021/12/05 17:20:21;;;;;;;;;;;9.80;93.50;;;;;;5094677;28;19916;-78
2021/12/05 17:22:50;;;;;;;;;;;9.70;93.50;;;;;;5094641;28;19957;-78
2021/12/05 17:25:45;;;;;;;;;;;9.60;93.30;;;;;;5094558;28;20418;-79
2021/12/05 17:28:31;;;;;;;;;;;9.60;93.50;;;;;;5072110;28;20368;-79
2021/12/05 17:30:58;;;;;;;;;;;9.50;93.60;;;;;;5094610;28;19946;-78
2021/12/05 17:33:29;;;;;;;;;;;9.60;93.30;;;;;;5094345;28;19996;-79
2021/12/05 17:35:55;;;;;;;;;;;9.60;93.10;;;;;;5094524;28;20435;-78
2021/12/05 17:38:29;;;;;;;;;;;9.70;93.00;;;;;;5076108;28;19915;-78
2021/12/05 17:40:55;;;;;;;;;;;9.60;93.00;;;;;;5094219;28;19912;-79
2021/12/05 17:43:20;;;;;;;;;;;9.70;93.00;;;;;;5094225;28;19908;-78
2021/12/05 17:45:46;;;;;;;;;;;9.70;93.10;;;;;;5094177;28;19908;-78
2021/12/05 17:48:11;;;;;;;;;;;9.80;92.80;;;;;;5094133;28;19908;-79
2021/12/05 17:50:39;;;;;;;;;;;9.80;93.10;;;;;;5094135;28;19935;-79
2021/12/05 17:53:04;;;;;;;;;;;9.70;92.60;;;;;;5094444;28;19955;-79
2021/12/05 17:55:32;;;;;;;;;;;9.70;92.80;;;;;;5094058;28;20391;-78
2021/12/05 17:58:17;;;;;;;;;;;9.70;92.90;;;;;;5094002;28;19934;-79
2021/12/05 18:00:58;;;;;;;;;;;9.60;93.20;;;;;;5075581;28;19931;-79
2021/12/05 18:03:24;;;;;;;;;;;9.60;93.50;;;;;;5075582;28;19915;-79
2021/12/05 18:05:50;;;;;;;;;;;9.50;93.40;;;;;;5093809;28;20372;-79
2021/12/05 18:08:18;;;;;;;;;;;9.40;93.70;;;;;;5094117;28;19912;-78
2021/12/05 18:10:48;;;;;;;;;;;9.40;93.80;;;;;;5075477;28;19920;-79
2021/12/05 18:13:15;;;;;;;;;;;9.40;93.60;;;;;;5092297;28;19908;-79
2021/12/05 18:15:46;;;;;;;;;;;9.40;93.80;;;;;;5093737;28;20280;-78
2021/12/05 18:18:13;;;;;;;;;;;9.50;93.20;;;;;;5094108;28;19951;-79
2021/12/05 18:20:39;;;;;;;;;;;9.60;93.40;;;;;;5093827;28;19934;-79
2021/12/05 18:23:06;;;;;;;;;;;9.70;93.40;;;;;;5093749;28;19908;-79
2021/12/05 18:25:32;;;;;;;;;;;9.70;93.50;;;;;;5094096;28;19915;-79
2021/12/05 18:27:58;;;;;;;;;;;9.60;93.60;;;;;;5093535;28;19975;-79
2021/12/05 18:30:24;;;;;;;;;;;9.60;93.60;;;;;;5093728;28;19908;-79
2021/12/05 18:32:51;;;;;;;;;;;9.60;94.00;;;;;;5093691;28;19916;-79
2021/12/05 18:35:17;;;;;;;;;;;9.50;94.20;;;;;;5093594;28;20388;-79
2021/12/05 18:37:43;;;;;;;;;;;9.50;94.20;;;;;;5093521;28;20383;-78
2021/12/05 18:40:10;;;;;;;;;;;9.50;94.30;;;;;;5078286;28;19958;-79
2021/12/05 18:42:35;;;;;;;;;;;9.50;94.50;;;;;;5097678;28;19912;-78
2021/12/05 18:45:04;;;;;;;;;;;9.60;94.20;;;;;;5097659;28;19974;-79
2021/12/05 18:47:29;;;;;;;;;;;9.60;94.30;;;;;;5079257;28;19912;-78
2021/12/05 18:49:55;;;;;;;;;;;9.70;94.20;;;;;;5097860;28;19919;-79
2021/12/05 18:52:23;;;;;;;;;;;9.70;94.10;;;;;;5079411;28;19908;-79
2021/12/05 18:54:49;;;;;;;;;;;9.60;94.00;;;;;;5097557;28;19908;-79
2021/12/05 18:57:18;;;;;;;;;;;9.50;94.30;;;;;;5096062;28;19915;-79
2021/12/05 18:59:50;;;;;;;;;;;9.40;94.80;;;;;;5097361;28;20375;-79
2021/12/05 19:05:06;;;;;;;;;;;9.20;94.70;;;;;;5097385;28;19931;-79
2021/12/05 19:07:44;;;;;;;;;;;9.10;95.10;;;;;;5097377;28;20042;-79
2021/12/05 19:12:54;;;;;;;;;;;9.20;95.10;;;;;;5097225;28;19966;-79
2021/12/05 19:15:20;;;;;;;;;;;9.20;95.40;;;;;;5097489;28;19909;-79
2021/12/05 19:17:45;;;;;;;;;;;9.20;95.70;;;;;;5097194;28;20360;-78
2021/12/05 19:20:16;;;;;;;;;;;9.30;95.60;;;;;;5096969;28;19908;-79
2021/12/05 19:22:42;;;;;;;;;;;9.30;95.30;;;;;;5097005;28;19915;-79
2021/12/05 19:25:18;;;;;;;;;;;9.40;95.40;;;;;;5097039;28;19943;-80
2021/12/05 19:27:45;;;;;;;;;;;9.50;95.00;;;;;;5096970;28;20330;-79
2021/12/05 19:30:12;;;;;;;;;;;9.50;94.80;;;;;;5096836;28;19934;-79
2021/12/05 19:32:38;;;;;;;;;;;9.50;95.10;;;;;;5096807;28;19908;-79
2021/12/05 19:35:04;;;;;;;;;;;9.50;95.20;;;;;;5078527;28;19999;-79
2021/12/05 19:37:30;;;;;;;;;;;9.50;94.80;;;;;;5096654;28;20018;-79
2021/12/05 19:39:56;;;;;;;;;;;9.50;95.20;;;;;;5078409;28;19915;-79
2021/12/05 19:42:24;;;;;;;;;;;9.40;95.10;;;;;;5096557;28;19939;-79
2021/12/05 19:44:51;;;;;;;;;;;9.50;95.50;;;;;;5078370;28;19908;-79
2021/12/05 19:47:17;;;;;;;;;;;9.50;95.30;;;;;;5078138;28;19912;-79
2021/12/05 19:49:43;;;;;;;;;;;9.50;95.30;;;;;;5096401;28;19914;-78
2021/12/05 19:52:08;;;;;;;;;;;9.50;95.30;;;;;;5095943;28;19999;-79
2021/12/05 19:54:34;;;;;;;;;;;9.50;95.40;;;;;;5078245;28;19908;-79